Time;durP1;ratioP1;P1;durP2;ratioP2;P2;SDS_P1;SDS_P2;PMS_P1;PMS_P2;Temp;Humidity;BMP_temperature;BMP_pressure;BME280_temperature;BME280_humidity;BME280_pressure;Samples;Min_cycle;Max_cycle;Signal;HPM_P1;HPM_P2
2023/05/11 00:00:32;;;;;;;30.98;22.13;;;11.60;99.90;;;;;;5039975;28;20073;-58
2023/05/11 00:02:58;;;;;;;29.65;19.83;;;11.70;99.90;;;;;;5040388;28;20408;-58
2023/05/11 00:05:24;;;;;;;27.42;20.10;;;11.70;99.90;;;;;;5039645;28;20037;-58
2023/05/11 00:07:49;;;;;;;29.73;20.08;;;11.70;99.90;;;;;;5040527;28;20435;-58
2023/05/11 00:10:15;;;;;;;27.77;20.02;;;11.70;99.90;;;;;;5039057;28;20048;-57
2023/05/11 00:12:41;;;;;;;25.67;19.83;;;11.70;99.90;;;;;;5040379;28;20508;-58
2023/05/11 00:15:07;;;;;;;25.65;18.63;;;11.70;99.90;;;;;;5039139;28;20045;-59
2023/05/11 00:17:33;;;;;;;26.73;20.35;;;11.70;99.90;;;;;;5040364;28;20174;-59
2023/05/11 00:19:58;;;;;;;25.92;20.52;;;11.70;99.90;;;;;;5038995;28;20044;-59
2023/05/11 00:22:24;;;;;;;25.98;19.70;;;11.70;99.90;;;;;;5041891;28;20103;-60
2023/05/11 00:24:50;;;;;;;26.27;19.13;;;11.70;99.90;;;;;;5044110;28;20351;-62
2023/05/11 00:27:15;;;;;;;31.30;19.88;;;11.70;99.90;;;;;;5043705;28;20041;-65
2023/05/11 00:29:41;;;;;;;26.67;19.90;;;11.70;99.90;;;;;;5042690;28;20250;-58
2023/05/11 00:32:07;;;;;;;29.00;21.00;;;11.60;99.90;;;;;;5043143;28;20107;-64
2023/05/11 00:34:32;;;;;;;27.75;20.15;;;11.60;99.90;;;;;;5043811;28;20515;-63
2023/05/11 00:36:58;;;;;;;27.90;20.02;;;11.60;99.90;;;;;;5043519;28;20597;-56
2023/05/11 00:39:24;;;;;;;28.25;19.90;;;11.60;99.90;;;;;;5043260;28;20594;-63
2023/05/11 00:41:50;;;;;;;26.13;18.58;;;11.60;99.90;;;;;;5043606;28;20428;-63
2023/05/11 00:44:15;;;;;;;28.05;19.88;;;11.60;99.90;;;;;;5042978;28;20037;-61
2023/05/11 00:46:41;;;;;;;28.02;20.80;;;11.60;99.90;;;;;;5040910;28;20076;-63
2023/05/11 00:49:08;;;;;;;30.15;21.20;;;11.60;99.90;;;;;;5043724;28;20102;-61
2023/05/11 00:51:35;;;;;;;28.27;20.23;;;11.50;99.90;;;;;;5043810;28;20052;-61
2023/05/11 00:54:01;;;;;;;28.58;20.75;;;11.50;99.90;;;;;;5042860;28;20049;-56
2023/05/11 00:56:27;;;;;;;29.80;22.10;;;11.50;99.90;;;;;;5043347;28;20056;-61
2023/05/11 00:58:53;;;;;;;30.65;21.98;;;11.60;99.90;;;;;;5041850;28;20041;-60
2023/05/11 01:01:19;;;;;;;28.92;20.73;;;11.60;99.90;;;;;;5042556;28;20041;-59
2023/05/11 01:03:46;;;;;;;31.52;22.23;;;11.50;99.90;;;;;;5042437;28;20552;-59
2023/05/11 01:06:35;;;;;;;30.65;21.90;;;11.60;99.90;;;;;;5042999;28;20040;-58
2023/05/11 01:09:14;;;;;;;30.10;21.90;;;11.60;99.90;;;;;;5042431;28;20144;-63
2023/05/11 01:12:06;;;;;;;32.17;22.13;;;11.50;99.90;;;;;;5043275;28;20041;-61
2023/05/11 01:14:44;;;;;;;30.33;20.13;;;11.60;99.90;;;;;;5122082;22;20067;-58
2023/05/11 01:17:18;;;;;;;32.35;21.70;;;11.60;99.90;;;;;;5046508;28;20037;-58
2023/05/11 01:19:53;;;;;;;31.65;20.92;;;11.50;99.90;;;;;;5045232;28;20119;-63
2023/05/11 01:22:49;;;;;;;29.65;20.17;;;11.50;99.90;;;;;;5045591;28;20087;-59
2023/05/11 01:26:00;;;;;;;30.33;19.60;;;11.60;99.90;;;;;;5045719;28;20044;-60
2023/05/11 01:28:48;;;;;;;29.27;19.48;;;11.50;99.90;;;;;;5014304;28;20060;-61
2023/05/11 01:31:16;;;;;;;28.90;20.08;;;11.50;99.90;;;;;;5026551;28;20049;-55
2023/05/11 01:34:03;;;;;;;31.92;20.08;;;11.50;99.90;;;;;;5045161;28;20114;-57
2023/05/11 01:36:35;;;;;;;30.98;20.77;;;11.50;99.90;;;;;;5045378;28;20045;-63
2023/05/11 01:39:06;;;;;;;31.95;20.35;;;11.40;99.90;;;;;;5045628;28;20155;-58
2023/05/11 01:41:34;;;;;;;29.00;19.98;;;11.40;99.90;;;;;;5045122;28;20049;-62
2023/05/11 01:44:04;;;;;;;32.90;21.80;;;11.50;99.90;;;;;;5044961;28;20085;-63
2023/05/11 01:46:32;;;;;;;31.15;20.85;;;11.50;99.90;;;;;;5044885;28;20420;-56
2023/05/11 01:49:00;;;;;;;31.15;21.13;;;11.50;99.90;;;;;;5045257;28;20049;-61
2023/05/11 01:51:33;;;;;;;31.83;21.88;;;11.50;99.90;;;;;;5044808;28;20087;-63
2023/05/11 01:53:59;;;;;;;31.52;21.25;;;11.50;99.90;;;;;;5027243;28;20056;-59
2023/05/11 01:56:26;;;;;;;32.97;21.42;;;11.40;99.90;;;;;;5045034;28;20052;-58
2023/05/11 01:58:55;;;;;;;38.15;24.27;;;11.40;99.90;;;;;;5045330;28;20076;-60
2023/05/11 02:01:23;;;;;;;31.48;20.25;;;11.50;99.90;;;;;;5044571;28;20045;-62
2023/05/11 02:03:49;;;;;;;33.88;21.63;;;11.40;99.90;;;;;;5045116;28;20506;-60
2023/05/11 02:06:17;;;;;;;31.08;20.90;;;11.40;99.90;;;;;;5044627;28;20045;-62
2023/05/11 02:08:45;;;;;;;34.63;22.17;;;11.40;99.90;;;;;;5045126;28;20127;-63
2023/05/11 02:11:12;;;;;;;36.95;21.92;;;11.40;99.90;;;;;;5045713;28;20510;-61
2023/05/11 02:13:40;;;;;;;31.40;21.08;;;11.30;99.90;;;;;;5043732;28;20388;-62
2023/05/11 02:16:07;;;;;;;30.88;19.67;;;11.30;99.90;;;;;;5044303;28;20057;-61
2023/05/11 02:18:34;;;;;;;31.98;20.70;;;11.30;99.90;;;;;;5044774;28;20927;-61
2023/05/11 02:21:01;;;;;;;31.27;20.33;;;11.20;99.90;;;;;;5043964;28;20041;-63
2023/05/11 02:23:29;;;;;;;32.13;20.50;;;11.20;99.90;;;;;;5026551;28;20099;-54
2023/05/11 02:25:56;;;;;;;29.42;19.95;;;11.20;99.90;;;;;;5027058;28;20044;-61
2023/05/11 02:28:22;;;;;;;33.13;20.73;;;11.20;99.90;;;;;;5043749;28;20465;-63
2023/05/11 02:30:51;;;;;;;33.67;21.55;;;11.20;99.90;;;;;;5043985;28;20048;-61
2023/05/11 02:33:24;;;;;;;31.63;20.33;;;11.20;99.90;;;;;;5044620;28;20572;-60
2023/05/11 02:35:53;;;;;;;31.30;20.27;;;11.30;99.90;;;;;;5043478;28;20051;-62
2023/05/11 02:38:22;;;;;;;31.67;20.95;;;11.30;99.90;;;;;;5044677;28;20071;-62
2023/05/11 02:40:53;;;;;;;35.22;20.42;;;11.30;99.90;;;;;;5044164;28;20045;-60
2023/05/11 02:43:23;;;;;;;34.88;20.88;;;11.30;99.90;;;;;;5044584;28;20090;-63
2023/05/11 02:45:52;;;;;;;29.90;19.40;;;11.20;99.90;;;;;;5042565;28;20055;-63
2023/05/11 02:48:28;;;;;;;29.25;18.75;;;11.20;99.90;;;;;;5024080;28;20048;-55
2023/05/11 02:50:55;;;;;;;30.40;19.23;;;11.20;99.90;;;;;;5044159;28;20415;-62
2023/05/11 02:53:25;;;;;;;33.30;18.52;;;11.20;99.90;;;;;;5044095;28;20120;-63
2023/05/11 02:55:53;;;;;;;30.75;17.58;;;11.20;99.90;;;;;;5043652;28;20048;-56
2023/05/11 02:58:19;;;;;;;29.65;18.52;;;11.20;99.90;;;;;;5026391;28;20692;-61
2023/05/11 03:00:45;;;;;;;38.42;18.23;;;11.20;99.90;;;;;;5043730;28;20048;-57
2023/05/11 03:03:11;;;;;;;37.88;18.25;;;11.20;99.90;;;;;;5043641;28;20036;-61
2023/05/11 03:05:36;;;;;;;56.80;17.90;;;11.20;99.90;;;;;;5043989;28;20045;-63
2023/05/11 03:08:02;;;;;;;31.77;19.48;;;11.10;99.90;;;;;;5043494;28;20049;-63
2023/05/11 03:10:28;;;;;;;38.20;18.67;;;11.10;99.90;;;;;;5043618;28;20676;-62
2023/05/11 03:12:55;;;;;;;38.88;18.73;;;11.10;99.90;;;;;;5025728;28;20120;-57
2023/05/11 03:15:21;;;;;;;44.25;19.02;;;11.10;99.90;;;;;;5043435;28;20079;-65
2023/05/11 03:17:49;;;;;;;49.45;18.50;;;11.10;99.90;;;;;;5044146;28;20550;-66
2023/05/11 03:20:16;;;;;;;31.02;17.70;;;11.10;99.90;;;;;;5043469;28;20085;-60
2023/05/11 03:22:43;;;;;;;43.67;18.90;;;11.10;99.90;;;;;;5043938;28;20136;-55
2023/05/11 03:25:10;;;;;;;52.13;19.15;;;11.10;99.90;;;;;;5043952;28;20124;-58
2023/05/11 03:27:37;;;;;;;39.25;19.42;;;11.10;99.90;;;;;;5042983;28;20511;-60
2023/05/11 03:30:08;;;;;;;39.10;19.40;;;11.10;99.90;;;;;;5027672;28;20490;-60
2023/05/11 03:32:34;;;;;;;39.30;17.77;;;11.10;99.90;;;;;;5023631;28;20443;-63
2023/05/11 03:35:00;;;;;;;38.17;19.55;;;11.10;99.90;;;;;;5023260;28;20049;-63
2023/05/11 03:37:29;;;;;;;52.03;19.10;;;11.10;99.90;;;;;;5023738;28;20069;-63
2023/05/11 03:39:58;;;;;;;55.42;18.65;;;11.10;99.90;;;;;;5023977;28;20498;-57
2023/05/11 03:42:25;;;;;;;54.95;19.92;;;11.10;99.90;;;;;;5023378;28;20073;-60
2023/05/11 03:44:57;;;;;;;67.53;20.55;;;11.10;99.90;;;;;;5023003;28;20570;-63
2023/05/11 03:47:27;;;;;;;39.72;20.42;;;11.10;99.90;;;;;;5023236;28;20045;-63
2023/05/11 03:49:55;;;;;;;48.20;22.23;;;11.00;99.90;;;;;;5022399;28;20431;-55
2023/05/11 03:52:22;;;;;;;45.13;20.13;;;11.00;99.90;;;;;;5023428;28;20038;-58
2023/05/11 03:54:48;;;;;;;39.90;20.60;;;11.00;99.90;;;;;;5023996;28;20140;-63
2023/05/11 03:57:14;;;;;;;36.38;17.85;;;11.00;99.90;;;;;;5026328;28;20709;-63
2023/05/11 03:59:40;;;;;;;35.03;18.08;;;11.00;99.90;;;;;;5025558;28;20045;-62
2023/05/11 04:02:07;;;;;;;29.80;16.45;;;11.00;99.90;;;;;;5026254;28;20627;-53
2023/05/11 04:04:33;;;;;;;32.72;17.70;;;11.00;99.90;;;;;;5025472;28;20094;-60
2023/05/11 04:06:59;;;;;;;30.70;15.57;;;11.10;99.90;;;;;;5025441;28;20408;-55
2023/05/11 04:09:25;;;;;;;30.55;15.55;;;11.00;99.90;;;;;;5026842;28;20053;-62
2023/05/11 04:11:51;;;;;;;36.10;16.05;;;11.10;99.90;;;;;;5026618;28;20598;-52
2023/05/11 04:14:17;;;;;;;35.60;17.33;;;11.10;99.90;;;;;;5026317;28;20508;-63
2023/05/11 04:16:43;;;;;;;26.48;15.95;;;11.00;99.90;;;;;;5026616;28;20048;-62
2023/05/11 04:19:09;;;;;;;25.40;15.70;;;11.00;99.90;;;;;;5027034;28;20175;-60
2023/05/11 04:21:35;;;;;;;21.70;14.52;;;11.00;99.90;;;;;;5008349;28;20050;-60
2023/05/11 04:24:01;;;;;;;22.40;14.38;;;11.00;99.90;;;;;;5027183;28;20628;-59
2023/05/11 04:26:27;;;;;;;24.67;15.00;;;11.00;99.90;;;;;;5027029;28;20038;-57
2023/05/11 04:28:53;;;;;;;22.20;15.80;;;11.00;99.90;;;;;;5026228;28;20419;-57
2023/05/11 04:31:19;;;;;;;25.90;15.95;;;11.00;99.90;;;;;;5026600;28;20140;-59
2023/05/11 04:33:44;;;;;;;24.60;16.02;;;11.00;99.90;;;;;;5027044;28;20045;-60
2023/05/11 04:36:10;;;;;;;34.00;16.38;;;11.00;99.90;;;;;;5026423;28;20077;-58
2023/05/11 04:38:36;;;;;;;26.20;16.02;;;11.00;99.90;;;;;;5026651;28;20052;-58
2023/05/11 04:41:05;;;;;;;31.08;16.35;;;11.00;99.90;;;;;;5026366;28;20116;-60
2023/05/11 04:43:31;;;;;;;34.50;15.88;;;11.00;99.90;;;;;;5026667;28;20446;-60
2023/05/11 04:46:00;;;;;;;25.20;16.20;;;11.00;99.90;;;;;;4991373;28;20060;-63
2023/05/11 04:48:26;;;;;;;26.02;15.73;;;11.00;99.90;;;;;;5026780;28;20395;-59
2023/05/11 04:50:56;;;;;;;30.08;15.50;;;11.10;99.90;;;;;;5027096;28;20089;-62
2023/05/11 04:53:22;;;;;;;33.03;15.48;;;11.00;99.90;;;;;;5024553;28;20068;-58
2023/05/11 04:55:48;;;;;;;29.15;14.40;;;11.00;99.90;;;;;;5025979;28;20041;-60
2023/05/11 04:58:14;;;;;;;30.30;15.98;;;11.00;99.90;;;;;;5025892;28;20513;-57
2023/05/11 05:00:40;;;;;;;21.63;14.57;;;11.00;99.90;;;;;;5025068;28;20045;-57
2023/05/11 05:03:06;;;;;;;21.10;14.95;;;11.00;99.90;;;;;;5026309;28;20045;-61
2023/05/11 05:05:31;;;;;;;21.02;14.45;;;11.00;99.90;;;;;;5025831;28;20053;-61
2023/05/11 05:07:57;;;;;;;28.88;15.70;;;11.00;99.90;;;;;;5024289;28;20044;-63
2023/05/11 05:10:23;;;;;;;24.67;16.65;;;11.00;99.90;;;;;;5026543;28;20037;-60
2023/05/11 05:12:48;;;;;;;25.15;16.80;;;11.00;99.90;;;;;;5025994;28;20829;-61
2023/05/11 05:15:14;;;;;;;30.65;17.33;;;11.10;99.90;;;;;;5025214;28;20492;-62
2023/05/11 05:17:40;;;;;;;30.20;17.02;;;11.30;99.90;;;;;;5025917;28;20468;-62
2023/05/11 05:20:06;;;;;;;33.92;17.42;;;11.10;99.90;;;;;;5025800;28;20045;-63
2023/05/11 05:22:33;;;;;;;42.67;18.17;;;11.10;99.90;;;;;;5025602;28;20050;-61
2023/05/11 05:24:58;;;;;;;32.17;18.58;;;11.10;99.90;;;;;;5025476;28;20084;-62
2023/05/11 05:27:24;;;;;;;27.83;17.77;;;11.10;99.90;;;;;;5025929;28;20076;-61
2023/05/11 05:29:50;;;;;;;21.98;15.98;;;11.10;99.90;;;;;;5025583;28;20049;-61
2023/05/11 05:32:16;;;;;;;19.17;14.85;;;11.20;99.90;;;;;;5024894;28;20460;-58
2023/05/11 05:34:42;;;;;;;25.20;15.30;;;11.10;99.90;;;;;;5025516;28;20527;-60
2023/05/11 05:37:08;;;;;;;25.15;16.83;;;11.10;99.90;;;;;;5025547;28;20060;-56
2023/05/11 05:39:34;;;;;;;22.75;16.10;;;11.20;99.90;;;;;;5025426;28;20076;-60
2023/05/11 05:42:01;;;;;;;30.20;16.45;;;11.20;99.90;;;;;;5024482;28;20072;-58
2023/05/11 05:44:27;;;;;;;25.75;16.77;;;11.10;99.90;;;;;;5024967;28;20605;-59
2023/05/11 05:46:53;;;;;;;27.13;16.50;;;11.20;99.90;;;;;;5025552;28;20051;-57
2023/05/11 05:49:18;;;;;;;24.55;15.85;;;11.20;99.90;;;;;;5024701;28;20041;-62
2023/05/11 05:51:44;;;;;;;22.33;15.40;;;11.20;99.90;;;;;;5025550;28;20103;-57
2023/05/11 05:54:12;;;;;;;27.60;16.60;;;11.20;99.90;;;;;;5024701;28;20108;-64
2023/05/11 05:56:39;;;;;;;27.15;16.88;;;11.20;99.90;;;;;;5024385;28;20042;-62
2023/05/11 05:59:07;;;;;;;25.05;16.65;;;11.20;99.90;;;;;;5024341;28;20045;-62
2023/05/11 06:01:34;;;;;;;26.02;17.20;;;11.20;99.90;;;;;;5025196;28;20072;-61
2023/05/11 06:03:59;;;;;;;26.17;16.23;;;11.20;99.90;;;;;;5024691;28;20132;-55
2023/05/11 06:06:26;;;;;;;25.02;16.30;;;11.20;99.90;;;;;;5025666;28;20124;-58
2023/05/11 06:08:52;;;;;;;29.55;15.80;;;11.20;99.90;;;;;;5024959;28;20065;-57
2023/05/11 06:11:17;;;;;;;22.13;15.63;;;11.30;99.90;;;;;;5024781;28;20049;-59
2023/05/11 06:13:46;;;;;;;21.42;14.93;;;11.20;99.90;;;;;;5024395;28;20431;-61
2023/05/11 06:16:12;;;;;;;19.98;14.30;;;11.30;99.90;;;;;;5024547;28;20084;-61
2023/05/11 06:18:37;;;;;;;20.05;14.90;;;11.30;99.90;;;;;;5024812;28;20045;-62
2023/05/11 06:21:03;;;;;;;18.98;13.95;;;11.30;99.90;;;;;;5024327;28;20120;-62
2023/05/11 06:23:28;;;;;;;23.10;16.92;;;11.30;99.90;;;;;;5006639;28;20073;-55
2023/05/11 06:25:54;;;;;;;19.83;13.32;;;11.30;99.90;;;;;;5024309;28;20037;-63
2023/05/11 06:28:23;;;;;;;19.98;13.13;;;11.40;99.90;;;;;;5024715;28;20049;-62
2023/05/11 06:30:49;;;;;;;16.73;12.50;;;11.30;99.90;;;;;;5023170;28;20098;-61
2023/05/11 06:33:14;;;;;;;17.67;13.15;;;11.40;99.90;;;;;;5024627;28;20041;-63
2023/05/11 06:35:40;;;;;;;16.92;12.88;;;11.40;99.90;;;;;;5023958;28;20045;-63
2023/05/11 06:38:06;;;;;;;18.40;12.43;;;11.40;99.90;;;;;;5023707;28;20471;-58
2023/05/11 06:40:31;;;;;;;15.77;11.90;;;11.50;99.90;;;;;;5024199;28;20141;-62
2023/05/11 06:42:57;;;;;;;15.23;11.65;;;11.50;99.90;;;;;;5024277;28;20106;-62
2023/05/11 06:45:22;;;;;;;14.90;11.80;;;11.60;99.90;;;;;;5005431;28;20488;-51
2023/05/11 06:47:48;;;;;;;15.35;11.77;;;11.70;99.90;;;;;;5024676;28;20539;-61
2023/05/11 06:50:14;;;;;;;14.93;11.63;;;11.70;99.90;;;;;;5024455;28;20132;-59
2023/05/11 06:52:39;;;;;;;15.02;11.95;;;11.80;99.90;;;;;;5023629;28;20045;-61
2023/05/11 06:55:06;;;;;;;15.93;12.60;;;11.80;99.90;;;;;;5024161;28;20045;-58
2023/05/11 06:57:31;;;;;;;13.90;11.57;;;11.80;99.90;;;;;;5023937;28;20037;-58
2023/05/11 06:59:57;;;;;;;13.88;10.70;;;11.90;99.90;;;;;;5004723;28;20050;-61
2023/05/11 07:02:23;;;;;;;15.05;11.73;;;11.90;99.90;;;;;;5023603;28;20052;-58
2023/05/11 07:04:48;;;;;;;15.15;11.80;;;11.90;99.90;;;;;;5024169;28;20046;-54
2023/05/11 07:07:14;;;;;;;15.05;12.15;;;11.90;99.90;;;;;;5023992;28;20044;-57
2023/05/11 07:09:40;;;;;;;14.02;11.82;;;11.90;99.90;;;;;;5022861;28;20641;-60
2023/05/11 07:12:06;;;;;;;13.73;11.10;;;12.00;99.90;;;;;;5023526;28;20037;-59
2023/05/11 07:14:31;;;;;;;13.75;11.05;;;12.00;99.90;;;;;;5022825;28;20053;-56
2023/05/11 07:16:57;;;;;;;14.25;11.63;;;12.00;99.90;;;;;;5023892;28;20746;-61
2023/05/11 07:19:23;;;;;;;13.65;11.30;;;12.00;99.90;;;;;;5006099;28;20124;-61
2023/05/11 07:21:49;;;;;;;13.48;11.20;;;12.10;99.90;;;;;;5023664;28;20113;-62
2023/05/11 07:24:14;;;;;;;14.85;11.10;;;12.10;99.90;;;;;;5023367;28;20045;-59
2023/05/11 07:26:40;;;;;;;12.38;10.55;;;12.20;99.90;;;;;;5023535;28;20037;-62
2023/05/11 07:29:05;;;;;;;12.68;10.55;;;12.20;99.90;;;;;;5023288;28;20037;-61
2023/05/11 07:31:32;;;;;;;13.48;10.68;;;12.30;99.90;;;;;;5025267;28;20108;-62
2023/05/11 07:33:58;;;;;;;12.30;10.48;;;12.30;99.90;;;;;;5024487;28;20099;-61
2023/05/11 07:36:24;;;;;;;14.20;11.43;;;12.30;99.90;;;;;;5025090;28;20134;-61
2023/05/11 07:38:49;;;;;;;12.88;11.00;;;12.40;99.90;;;;;;5024798;28;20045;-63
2023/05/11 07:41:16;;;;;;;12.55;10.50;;;12.50;99.90;;;;;;5024594;28;20048;-53
2023/05/11 07:43:42;;;;;;;11.25;9.88;;;12.60;99.90;;;;;;5023948;28;20543;-62
2023/05/11 07:46:08;;;;;;;13.13;11.13;;;12.50;99.90;;;;;;5024908;28;20056;-63
2023/05/11 07:48:33;;;;;;;14.48;11.23;;;12.60;99.90;;;;;;5006849;28;20049;-56
2023/05/11 07:51:00;;;;;;;12.55;10.48;;;12.70;99.90;;;;;;5024261;28;20477;-61
2023/05/11 07:53:26;;;;;;;12.13;9.80;;;12.60;99.90;;;;;;5024512;28;20471;-58
2023/05/11 07:55:52;;;;;;;12.43;10.77;;;12.70;99.90;;;;;;5024554;28;20047;-58
2023/05/11 07:58:17;;;;;;;13.30;10.13;;;12.70;99.90;;;;;;5023905;28;20049;-56
2023/05/11 08:00:43;;;;;;;12.75;10.90;;;12.70;99.90;;;;;;5023874;28;20417;-56
2023/05/11 08:03:09;;;;;;;13.30;11.13;;;12.70;99.90;;;;;;5024777;28;20354;-58
2023/05/11 08:05:36;;;;;;;13.10;10.10;;;12.70;99.90;;;;;;4990198;28;20326;-56
2023/05/11 08:08:03;;;;;;;11.60;9.70;;;12.80;99.90;;;;;;5024338;28;20275;-57
2023/05/11 08:10:30;;;;;;;11.05;9.50;;;12.80;99.90;;;;;;5024332;28;20086;-61
2023/05/11 08:12:56;;;;;;;11.98;9.88;;;12.80;99.90;;;;;;5024279;28;20040;-60
2023/05/11 08:15:21;;;;;;;11.10;9.18;;;12.90;99.90;;;;;;5022684;28;20041;-60
2023/05/11 08:17:47;;;;;;;10.15;8.20;;;12.90;99.90;;;;;;5024424;28;20100;-56
2023/05/11 08:20:13;;;;;;;10.55;7.50;;;13.00;99.90;;;;;;5024247;28;20128;-61
2023/05/11 08:22:39;;;;;;;10.02;7.32;;;13.10;99.90;;;;;;5023098;28;20052;-60
2023/05/11 08:25:05;;;;;;;8.68;7.40;;;13.10;99.90;;;;;;5024380;28;20045;-52
2023/05/11 08:27:30;;;;;;;9.05;7.10;;;13.10;99.90;;;;;;5024201;28;20044;-61
2023/05/11 08:29:56;;;;;;;7.78;6.43;;;13.20;99.90;;;;;;5023427;28;20408;-61
2023/05/11 08:32:21;;;;;;;7.85;6.85;;;13.20;99.90;;;;;;5023523;28;20787;-59
2023/05/11 08:34:47;;;;;;;9.18;6.93;;;13.30;99.90;;;;;;5023625;28;20120;-61
2023/05/11 08:37:13;;;;;;;7.45;6.15;;;13.40;99.90;;;;;;5023541;28;20259;-63
2023/05/11 08:39:38;;;;;;;7.90;5.97;;;13.50;99.90;;;;;;5023192;28;20079;-59
2023/05/11 08:42:06;;;;;;;9.40;6.45;;;13.60;99.90;;;;;;5023203;28;20123;-62
2023/05/11 08:44:33;;;;;;;7.65;6.18;;;13.60;99.90;;;;;;5005442;28;20049;-61
2023/05/11 08:46:59;;;;;;;8.18;6.78;;;13.70;99.90;;;;;;5022767;28;20034;-61
2023/05/11 08:49:26;;;;;;;9.15;7.15;;;13.70;99.90;;;;;;5023448;28;20443;-60
2023/05/11 08:51:52;;;;;;;7.63;6.53;;;13.60;99.90;;;;;;5023028;28;20104;-62
2023/05/11 08:54:17;;;;;;;10.48;7.05;;;13.60;99.90;;;;;;5023119;28;20277;-52
2023/05/11 08:56:46;;;;;;;10.82;8.40;;;13.60;99.90;;;;;;5022943;28;20392;-58
2023/05/11 08:59:12;;;;;;;11.18;7.95;;;13.60;99.90;;;;;;5022699;28;20037;-57
2023/05/11 09:01:40;;;;;;;11.52;8.35;;;13.50;99.90;;;;;;5023233;28;20262;-64
2023/05/11 09:04:07;;;;;;;12.05;9.20;;;13.60;99.90;;;;;;5022598;28;20419;-67
2023/05/11 09:06:33;;;;;;;11.52;8.82;;;13.70;99.90;;;;;;5023658;28;20649;-59
2023/05/11 09:09:00;;;;;;;12.27;8.50;;;13.70;99.90;;;;;;5023379;28;20432;-65
2023/05/11 09:11:26;;;;;;;12.15;8.90;;;13.90;99.90;;;;;;5022466;28;20045;-65
2023/05/11 09:13:52;;;;;;;11.32;8.32;;;13.90;99.90;;;;;;5022252;28;20049;-69
2023/05/11 09:16:18;;;;;;;11.50;8.98;;;13.90;99.90;;;;;;5022824;28;20056;-67
2023/05/11 09:18:51;;;;;;;10.32;8.50;;;13.90;99.90;;;;;;5022267;28;20072;-69
2023/05/11 09:21:18;;;;;;;11.32;7.95;;;14.00;99.90;;;;;;5023036;28;20123;-67
2023/05/11 09:23:44;;;;;;;10.55;8.23;;;14.00;99.90;;;;;;5022958;28;20096;-68
2023/05/11 09:26:14;;;;;;;10.63;8.73;;;14.00;99.90;;;;;;5021903;28;20496;-68
2023/05/11 09:28:48;;;;;;;11.23;8.80;;;14.00;99.90;;;;;;5022071;28;20404;-68
2023/05/11 09:31:43;;;;;;;11.47;8.00;;;14.00;99.90;;;;;;5022615;28;20048;-62
2023/05/11 09:34:13;;;;;;;;;;;14.10;99.90;;;;;;5023248;28;20295;-58
2023/05/11 09:36:40;;;;;;;9.95;8.00;;;14.20;99.90;;;;;;5022618;28;20265;-63
2023/05/11 09:39:06;;;;;;;10.90;8.63;;;14.30;99.90;;;;;;5023100;28;20049;-68
2023/05/11 09:41:32;;;;;;;9.55;7.72;;;14.30;99.90;;;;;;5004897;28;20391;-69
2023/05/11 09:44:11;;;;;;;10.38;8.20;;;14.40;99.90;;;;;;5021492;28;20056;-65
2023/05/11 09:46:38;;;;;;;9.98;7.60;;;14.50;99.90;;;;;;5004644;28;20057;-65
2023/05/11 09:49:05;;;;;;;8.10;6.43;;;14.60;99.90;;;;;;5004609;28;20452;-66
2023/05/11 09:51:32;;;;;;;9.32;6.88;;;14.70;99.90;;;;;;5022063;28;20049;-65
2023/05/11 09:53:59;;;;;;;9.25;6.80;;;14.80;99.90;;;;;;5021686;28;20037;-65
2023/05/11 09:56:50;;;;;;;8.50;7.07;;;14.90;99.90;;;;;;5022223;28;20046;-67
2023/05/11 09:59:36;;;;;;;8.30;6.55;;;15.00;99.90;;;;;;5011341;28;20373;-68
2023/05/11 10:02:18;;;;;;;9.80;6.60;;;15.20;99.90;;;;;;5021000;28;20560;-60
2023/05/11 10:04:44;;;;;;;6.82;5.47;;;15.40;99.90;;;;;;5022069;28;20377;-69
2023/05/11 10:07:09;;;;;;;7.78;5.82;;;15.50;99.90;;;;;;5022252;28;20186;-65
2023/05/11 10:09:37;;;;;;;9.13;6.80;;;15.70;99.90;;;;;;5021167;28;20547;-63
2023/05/11 10:12:05;;;;;;;8.07;5.72;;;15.80;99.90;;;;;;5022119;28;20049;-63
2023/05/11 10:14:32;;;;;;;8.05;5.90;;;15.90;99.90;;;;;;5020750;28;20053;-65
2023/05/11 10:17:01;;;;;;;7.68;5.53;;;16.00;99.90;;;;;;5020945;28;20412;-64
2023/05/11 10:19:27;;;;;;;6.88;4.95;;;16.10;99.90;;;;;;5022176;28;20038;-65
2023/05/11 10:21:55;;;;;;;7.75;5.95;;;16.20;99.90;;;;;;5022276;28;20068;-67
2023/05/11 10:24:21;;;;;;;7.75;5.15;;;16.20;99.90;;;;;;5021203;28;20080;-69
2023/05/11 10:26:47;;;;;;;7.78;5.38;;;16.30;99.90;;;;;;5023306;28;20041;-71
2023/05/11 10:29:13;;;;;;;6.82;5.10;;;16.40;99.90;;;;;;5023691;28;20561;-62
2023/05/11 10:31:39;;;;;;;7.10;5.45;;;16.40;99.90;;;;;;5024267;28;20107;-70
2023/05/11 10:34:06;;;;;;;6.43;4.95;;;16.50;99.90;;;;;;5023922;28;20162;-68
2023/05/11 10:36:32;;;;;;;6.68;4.97;;;16.60;99.90;;;;;;5024310;28;20103;-67
2023/05/11 10:38:58;;;;;;;8.48;4.95;;;16.80;99.90;;;;;;5024355;28;20041;-64
2023/05/11 10:42:00;;;;;;;6.28;4.32;;;16.90;99.90;;;;;;5023471;28;20171;-64
2023/05/11 10:45:00;;;;;;;5.75;4.57;;;17.30;99.90;;;;;;4992895;28;20385;-65
2023/05/11 10:48:04;;;;;;;5.95;4.45;;;17.70;99.90;;;;;;5024371;28;20440;-57
2023/05/11 10:51:24;;;;;;;5.30;3.77;;;18.10;99.90;;;;;;5023787;28;20057;-70
2023/05/11 10:54:08;;;;;;;8.57;4.82;;;18.20;99.90;;;;;;4942863;29;20055;-70
2023/05/11 10:57:07;;;;;;;6.65;4.60;;;18.20;99.90;;;;;;5015521;28;20057;-59
2023/05/11 11:00:18;;;;;;;5.07;4.13;;;18.10;99.90;;;;;;5022947;28;20424;-57
2023/05/11 11:02:44;;;;;;;6.70;4.80;;;17.90;99.90;;;;;;5023707;28;20049;-57
2023/05/11 11:05:14;;;;;;;5.30;4.20;;;17.70;99.90;;;;;;5003736;28;20057;-63
2023/05/11 11:08:02;;;;;;;5.10;3.97;;;17.80;99.90;;;;;;5020867;28;20045;-63
2023/05/11 11:10:35;;;;;;;4.63;3.78;;;17.90;99.90;;;;;;5020687;28;20523;-58
2023/05/11 11:13:08;;;;;;;5.30;3.83;;;18.00;99.90;;;;;;5019647;28;20088;-68
2023/05/11 11:15:52;;;;;;;5.75;3.53;;;17.90;99.90;;;;;;5021117;28;20068;-65
2023/05/11 11:18:23;;;;;;;5.10;3.73;;;17.80;99.90;;;;;;5020956;28;20045;-63
2023/05/11 11:20:53;;;;;;;4.57;3.70;;;17.70;99.90;;;;;;5021261;28;20049;-62
2023/05/11 11:23:48;;;;;;;4.53;3.33;;;17.70;99.90;;;;;;5020767;28;20208;-60
2023/05/11 11:26:17;;;;;;;4.80;3.70;;;17.70;99.90;;;;;;5021374;28;20049;-63
2023/05/11 11:28:56;;;;;;;4.10;3.40;;;17.80;99.90;;;;;;5020756;28;20033;-66
2023/05/11 11:31:22;;;;;;;3.42;2.70;;;17.90;99.90;;;;;;5020553;28;20284;-63
2023/05/11 11:33:48;;;;;;;4.10;3.35;;;17.90;99.90;;;;;;5020520;28;20041;-65
2023/05/11 11:36:15;;;;;;;4.10;3.70;;;17.80;99.90;;;;;;5020179;28;20369;-60
2023/05/11 11:39:00;;;;;;;4.82;3.15;;;17.60;99.90;;;;;;5020741;28;20556;-63
2023/05/11 11:41:29;;;;;;;3.97;2.90;;;17.50;99.90;;;;;;5020393;28;20085;-66
2023/05/11 11:43:55;;;;;;;4.50;3.13;;;17.50;99.90;;;;;;5019161;28;20091;-56
2023/05/11 11:46:25;;;;;;;3.70;2.78;;;17.50;99.90;;;;;;5020466;28;20124;-60
2023/05/11 11:49:04;;;;;;;5.05;3.00;;;17.50;99.90;;;;;;5020024;28;20044;-65
2023/05/11 11:51:33;;;;;;;3.80;2.85;;;17.40;99.90;;;;;;5020914;28;20045;-62
2023/05/11 11:53:58;;;;;;;4.25;2.88;;;17.50;99.90;;;;;;5023728;28;20044;-63
2023/05/11 11:56:24;;;;;;;4.80;2.97;;;17.60;99.90;;;;;;5038857;28;20056;-65
2023/05/11 11:58:50;;;;;;;5.35;2.97;;;17.70;99.90;;;;;;5039163;28;20520;-64
2023/05/11 12:01:24;;;;;;;3.85;2.60;;;17.80;99.90;;;;;;5040288;28;20072;-62
2023/05/11 12:04:20;;;;;;;4.75;2.75;;;17.80;99.90;;;;;;5039120;28;20128;-71
2023/05/11 12:06:55;;;;;;;3.72;2.60;;;17.80;99.90;;;;;;5039134;28;20064;-70
2023/05/11 12:09:22;;;;;;;3.30;2.83;;;17.80;99.90;;;;;;5038722;28;20132;-67
2023/05/11 12:11:48;;;;;;;3.10;2.20;;;17.90;99.90;;;;;;5039343;28;20476;-69
2023/05/11 12:14:14;;;;;;;3.90;2.60;;;18.00;99.90;;;;;;5038983;28;20136;-65
2023/05/11 12:16:40;;;;;;;4.20;3.28;;;18.00;99.90;;;;;;5033413;28;20182;-67
2023/05/11 12:19:05;;;;;;;5.47;3.10;;;18.10;99.90;;;;;;5043055;28;20068;-70
2023/05/11 12:21:31;;;;;;;4.88;3.47;;;18.10;99.90;;;;;;5043555;28;20099;-72
2023/05/11 12:24:04;;;;;;;6.80;3.45;;;18.10;99.90;;;;;;5042521;28;20048;-62
2023/05/11 12:26:32;;;;;;;4.75;3.85;;;18.20;99.90;;;;;;5043531;28;20049;-67
2023/05/11 12:29:12;;;;;;;6.10;3.85;;;18.30;99.90;;;;;;5042568;28;20124;-68
2023/05/11 12:31:40;;;;;;;5.00;3.78;;;18.20;99.90;;;;;;5042528;28;20627;-59
2023/05/11 12:34:06;;;;;;;5.50;4.50;;;18.10;99.90;;;;;;5042940;28;20165;-60
2023/05/11 12:36:33;;;;;;;5.88;4.15;;;18.10;99.90;;;;;;5042764;28;20044;-64
2023/05/11 12:38:59;;;;;;;6.15;4.38;;;18.10;99.90;;;;;;5042728;28;20049;-69
2023/05/11 12:41:26;;;;;;;8.55;4.90;;;18.10;99.90;;;;;;5043294;28;20048;-66